Time;durP1;ratioP1;P1;durP2;ratioP2;P2;SDS_P1;SDS_P2;PMS_P1;PMS_P2;Temp;Humidity;BMP_temperature;BMP_pressure;BME280_temperature;BME280_humidity;BME280_pressure;Samples;Min_cycle;Max_cycle;Signal;HPM_P1;HPM_P2
2021/05/02 00:00:32;;;;;;;;;;;;;;;21.19;49.40;100240.31;5077045;28;835;-63
2021/05/02 00:02:58;;;;;;;;;;;;;;;20.88;50.73;100245.03;5075611;28;1976;-62
2021/05/02 00:05:24;;;;;;;;;;;;;;;21.43;49.25;100247.41;5055947;28;1166;-63
2021/05/02 00:07:50;;;;;;;;;;;;;;;21.95;47.65;100260.63;5056006;28;1105;-64
2021/05/02 00:10:16;;;;;;;;;;;;;;;22.15;47.27;100239.78;5056712;28;1215;-64
2021/05/02 00:12:42;;;;;;;;;;;;;;;22.11;47.26;100251.84;5056786;28;843;-63
2021/05/02 00:15:11;;;;;;;;;;;;;;;22.26;46.78;100253.31;5056698;28;756;-63
2021/05/02 00:17:36;;;;;;;;;;;;;;;22.42;46.31;100256.47;5055430;28;1019;-64
2021/05/02 00:20:02;;;;;;;;;;;;;;;22.14;46.86;100262.28;5056666;28;747;-64
2021/05/02 00:22:28;;;;;;;;;;;;;;;21.23;49.34;100253.50;5057311;28;1914;-62
2021/05/02 00:24:53;;;;;;;;;;;;;;;21.03;50.08;100237.16;5055651;28;780;-64
2021/05/02 00:27:19;;;;;;;;;;;;;;;21.30;49.27;100234.50;5055456;28;906;-63
2021/05/02 00:29:44;;;;;;;;;;;;;;;21.66;48.31;100228.81;5056605;28;815;-64
2021/05/02 00:32:10;;;;;;;;;;;;;;;21.82;47.77;100243.00;5054887;28;954;-64
2021/05/02 00:34:35;;;;;;;;;;;;;;;22.10;47.18;100237.19;5056260;28;807;-64
2021/05/02 00:37:01;;;;;;;;;;;;;;;22.31;46.63;100233.78;5056742;28;772;-63
2021/05/02 00:39:27;;;;;;;;;;;;;;;22.29;46.84;100228.56;5056463;28;776;-63
2021/05/02 00:41:53;;;;;;;;;;;;;;;22.19;46.79;100232.47;5055372;28;792;-62
2021/05/02 00:44:21;;;;;;;;;;;;;;;21.87;47.46;100237.31;5056678;28;1973;-61
2021/05/02 00:46:54;;;;;;;;;;;;;;;21.24;49.37;100239.38;5055920;28;1003;-63
2021/05/02 00:49:23;;;;;;;;;;;;;;;21.38;48.85;100239.25;5055164;28;748;-63
2021/05/02 00:51:57;;;;;;;;;;;;;;;21.70;48.28;100226.22;5055548;28;827;-63
2021/05/02 00:54:36;;;;;;;;;;;;;;;21.98;47.30;100237.81;5056694;28;862;-63
2021/05/02 00:57:03;;;;;;;;;;;;;;;22.26;46.67;100228.38;5056099;28;808;-63
2021/05/02 00:59:33;;;;;;;;;;;;;;;22.34;46.48;100227.59;5056315;28;981;-63
2021/05/02 01:01:58;;;;;;;;;;;;;;;22.44;46.16;100226.47;5055929;28;970;-62
2021/05/02 01:04:29;;;;;;;;;;;;;;;22.38;46.38;100223.03;5055135;28;1906;-63
2021/05/02 01:06:55;;;;;;;;;;;;;;;22.29;46.60;100211.94;5056377;28;826;-63
2021/05/02 01:09:20;;;;;;;;;;;;;;;21.79;47.91;100218.72;5055919;28;823;-63
2021/05/02 01:11:46;;;;;;;;;;;;;;;21.57;48.17;100227.16;5054816;28;1234;-63
2021/05/02 01:14:12;;;;;;;;;;;;;;;21.07;49.61;100217.97;5054876;28;819;-63
2021/05/02 01:16:39;;;;;;;;;;;;;;;21.59;48.43;100213.78;5055329;28;963;-61
2021/05/02 01:19:05;;;;;;;;;;;;;;;21.91;47.49;100220.06;5054926;28;767;-63
2021/05/02 01:21:30;;;;;;;;;;;;;;;22.16;46.84;100210.97;5054756;28;1332;-63
2021/05/02 01:23:57;;;;;;;;;;;;;;;22.19;46.87;100199.25;5055811;28;1913;-63
2021/05/02 01:26:22;;;;;;;;;;;;;;;22.30;46.57;100193.34;5055954;28;791;-63
2021/05/02 01:28:48;;;;;;;;;;;;;;;22.38;46.44;100185.09;5054807;28;708;-63
2021/05/02 01:31:13;;;;;;;;;;;;;;;22.29;46.69;100180.69;5054681;28;1010;-63
2021/05/02 01:33:39;;;;;;;;;;;;;;;21.75;47.91;100184.53;5055817;28;947;-63
2021/05/02 01:36:05;;;;;;;;;;;;;;;21.65;48.31;100185.66;5055803;28;791;-62
2021/05/02 01:38:30;;;;;;;;;;;;;;;21.22;49.28;100182.75;5054548;28;747;-65
2021/05/02 01:40:56;;;;;;;;;;;;;;;21.59;48.57;100186.13;5055843;28;759;-64
2021/05/02 01:43:21;;;;;;;;;;;;;;;21.97;47.63;100185.56;5056128;28;1913;-64
2021/05/02 01:45:47;;;;;;;;;;;;;;;22.14;47.04;100191.09;5055485;28;863;-65
2021/05/02 01:48:13;;;;;;;;;;;;;;;22.25;46.73;100186.03;5059060;28;982;-64
2021/05/02 01:50:41;;;;;;;;;;;;;;;22.10;47.13;100179.03;5059624;28;763;-64
2021/05/02 01:53:06;;;;;;;;;;;;;;;22.00;47.25;100176.59;5059678;28;799;-64
2021/05/02 01:55:32;;;;;;;;;;;;;;;21.77;47.70;100173.16;5058496;28;755;-65
2021/05/02 01:57:57;;;;;;;;;;;;;;;21.59;47.93;100164.84;5042063;28;799;-63
2021/05/02 02:00:23;;;;;;;;;;;;;;;21.39;48.55;100166.19;5058136;28;724;-64
2021/05/02 02:02:48;;;;;;;;;;;;;;;21.51;48.63;100155.34;5059080;28;1962;-63
2021/05/02 02:05:14;;;;;;;;;;;;;;;21.74;48.18;100149.72;5057882;28;1195;-64
2021/05/02 02:07:39;;;;;;;;;;;;;;;21.78;47.84;100152.66;5059543;28;795;-64
2021/05/02 02:10:05;;;;;;;;;;;;;;;21.83;47.67;100141.44;5059167;28;1072;-65
2021/05/02 02:12:30;;;;;;;;;;;;;;;21.93;47.61;100145.81;5058940;28;744;-64
2021/05/02 02:14:56;;;;;;;;;;;;;;;21.94;47.35;100145.50;5057800;28;814;-63
2021/05/02 02:17:21;;;;;;;;;;;;;;;22.00;47.17;100137.84;5057617;28;990;-64
2021/05/02 02:19:47;;;;;;;;;;;;;;;21.88;47.76;100142.06;5058810;28;803;-63
2021/05/02 02:22:13;;;;;;;;;;;;;;;21.82;47.95;100140.59;5059168;28;819;-64
2021/05/02 02:24:42;;;;;;;;;;;;;;;21.98;47.39;100135.41;5058946;28;1976;-63
2021/05/02 02:27:07;;;;;;;;;;;;;;;21.98;47.26;100146.47;5058773;28;792;-63
2021/05/02 02:29:33;;;;;;;;;;;;;;;21.98;47.44;100142.88;5058865;28;838;-63
2021/05/02 02:31:58;;;;;;;;;;;;;;;21.91;47.76;100137.84;5058261;28;954;-63
2021/05/02 02:34:23;;;;;;;;;;;;;;;21.73;47.93;100145.31;5057208;28;819;-62
2021/05/02 02:36:49;;;;;;;;;;;;;;;21.91;47.57;100148.09;5057717;28;883;-62
2021/05/02 02:39:15;;;;;;;;;;;;;;;21.89;47.70;100142.88;5057486;28;1153;-62
2021/05/02 02:41:41;;;;;;;;;;;;;;;22.05;47.39;100137.69;5058467;28;756;-62
2021/05/02 02:44:07;;;;;;;;;;;;;;;22.21;46.73;100141.56;5058796;28;1979;-62
2021/05/02 02:46:33;;;;;;;;;;;;;;;22.16;46.97;100133.44;5058026;28;970;-65
2021/05/02 02:48:59;;;;;;;;;;;;;;;21.27;49.12;100132.84;5058556;28;748;-63
2021/05/02 02:51:25;;;;;;;;;;;;;;;21.04;49.82;100127.38;5059131;28;775;-63
2021/05/02 02:53:51;;;;;;;;;;;;;;;20.80;50.47;100131.38;5058464;28;767;-61
2021/05/02 02:56:18;;;;;;;;;;;;;;;21.39;49.27;100121.94;5057930;28;744;-60
2021/05/02 02:58:44;;;;;;;;;;;;;;;21.98;47.45;100126.25;5058645;28;825;-60
2021/05/02 03:01:10;;;;;;;;;;;;;;;22.08;47.09;100125.94;5056993;28;861;-64
2021/05/02 03:03:35;;;;;;;;;;;;;;;22.17;46.90;100114.88;5057584;28;1922;-55
2021/05/02 03:06:01;;;;;;;;;;;;;;;22.33;46.61;100112.38;5056949;28;1290;-66
2021/05/02 03:08:28;;;;;;;;;;;;;;;21.70;47.89;100112.78;5058118;28;756;-64
2021/05/02 03:10:54;;;;;;;;;;;;;;;21.57;48.51;100106.22;5057957;28;1191;-64
2021/05/02 03:13:19;;;;;;;;;;;;;;;21.61;47.80;100106.41;5056849;28;740;-58
2021/05/02 03:15:45;;;;;;;;;;;;;;;21.52;48.97;100106.41;5056806;28;977;-66
2021/05/02 03:18:15;;;;;;;;;;;;;;;21.75;48.04;100107.06;5072362;28;1011;-54
2021/05/02 03:20:40;;;;;;;;;;;;;;;21.98;47.44;100101.34;5076676;28;942;-67
2021/05/02 03:23:13;;;;;;;;;;;;;;;22.14;47.11;100102.47;5076276;28;1913;-58
2021/05/02 03:25:42;;;;;;;;;;;;;;;22.22;46.69;100104.44;5077676;28;755;-56
2021/05/02 03:28:08;;;;;;;;;;;;;;;22.38;46.39;100099.22;5078083;28;807;-63
2021/05/02 03:30:33;;;;;;;;;;;;;;;22.33;46.51;100093.00;5077523;28;791;-54
2021/05/02 03:33:00;;;;;;;;;;;;;;;22.41;46.22;100106.03;5076997;28;1034;-53
2021/05/02 03:35:27;;;;;;;;;;;;;;;22.33;46.62;100104.06;5076205;28;1302;-61
2021/05/02 03:38:31;;;;;;;;;;;;;;;21.76;48.23;100108.69;5076219;28;722;-60
2021/05/02 03:40:56;;;;;;;;;;;;;;;21.37;48.52;100118.69;5035428;28;1251;-55
2021/05/02 03:43:22;;;;;;;;;;;;;;;21.39;49.25;100121.94;5035757;28;1963;-51
2021/05/02 03:45:47;;;;;;;;;;;;;;;21.69;48.16;100122.22;5054526;28;1032;-52
2021/05/02 03:48:13;;;;;;;;;;;;;;;22.05;47.22;100123.84;5077115;28;1033;-54
2021/05/02 03:50:38;;;;;;;;;;;;;;;22.30;46.75;100121.34;5077238;28;744;-50
2021/05/02 03:53:04;;;;;;;;;;;;;;;22.34;46.54;100120.41;5077190;28;807;-51
2021/05/02 03:55:30;;;;;;;;;;;;;;;21.96;47.16;100118.28;5077323;28;883;-61
2021/05/02 03:57:55;;;;;;;;;;;;;;;21.58;48.54;100123.66;5075920;28;1144;-62
2021/05/02 04:00:20;;;;;;;;;;;;;;;21.45;48.84;100134.50;5058303;28;1106;-66
2021/05/02 04:02:46;;;;;;;;;;;;;;;21.30;49.08;100134.97;5069970;28;1914;-67
2021/05/02 04:05:11;;;;;;;;;;;;;;;21.66;48.53;100131.16;5077001;28;797;-66
2021/05/02 04:07:37;;;;;;;;;;;;;;;22.02;47.44;100138.31;5076984;28;795;-65
2021/05/02 04:10:02;;;;;;;;;;;;;;;22.26;46.84;100137.00;5076454;28;1054;-61
2021/05/02 04:12:28;;;;;;;;;;;;;;;22.33;46.75;100131.75;5076624;28;827;-61
2021/05/02 04:14:53;;;;;;;;;;;;;;;22.04;47.53;100125.78;5076785;28;858;-67
2021/05/02 04:17:19;;;;;;;;;;;;;;;21.75;48.20;100133.94;5076539;28;970;-61
2021/05/02 04:19:45;;;;;;;;;;;;;;;21.34;48.55;100125.69;5076517;28;764;-71
2021/05/02 04:22:11;;;;;;;;;;;;;;;21.54;48.90;100120.72;5076627;28;836;-61
2021/05/02 04:24:37;;;;;;;;;;;;;;;21.94;47.88;100128.09;5076858;28;1914;-68
2021/05/02 04:27:02;;;;;;;;;;;;;;;22.28;47.16;100129.19;5076440;28;789;-67
2021/05/02 04:29:28;;;;;;;;;;;;;;;22.39;46.67;100124.97;5076715;28;744;-65
2021/05/02 04:31:54;;;;;;;;;;;;;;;22.13;47.35;100128.56;5076339;28;958;-66
2021/05/02 04:34:20;;;;;;;;;;;;;;;21.96;47.69;100128.56;5076929;28;828;-61
2021/05/02 04:36:46;;;;;;;;;;;;;;;21.73;47.96;100131.50;5076401;28;772;-58
2021/05/02 04:39:11;;;;;;;;;;;;;;;21.46;49.21;100130.63;5076557;28;843;-66
2021/05/02 04:41:36;;;;;;;;;;;;;;;21.80;48.24;100126.28;5076229;28;779;-58
2021/05/02 04:44:02;;;;;;;;;;;;;;;22.19;47.21;100132.78;5076634;28;1967;-53
2021/05/02 04:46:27;;;;;;;;;;;;;;;22.36;46.63;100131.16;5076468;28;1025;-61
2021/05/02 04:48:53;;;;;;;;;;;;;;;22.18;47.06;100142.22;5076235;28;767;-67
2021/05/02 04:51:19;;;;;;;;;;;;;;;21.85;47.86;100144.66;5076636;28;828;-65
2021/05/02 04:53:45;;;;;;;;;;;;;;;21.70;48.09;100145.97;5076290;28;804;-67
2021/05/02 04:56:11;;;;;;;;;;;;;;;21.41;48.37;100152.88;5074701;28;888;-66
2021/05/02 04:58:36;;;;;;;;;;;;;;;21.59;48.73;100150.16;5076343;28;846;-62
2021/05/02 05:01:02;;;;;;;;;;;;;;;22.04;47.56;100149.91;5076613;28;767;-62
2021/05/02 05:03:27;;;;;;;;;;;;;;;22.28;47.10;100145.81;5075753;28;1913;-61
2021/05/02 05:05:53;;;;;;;;;;;;;;;22.43;46.66;100141.72;5076563;28;804;-63
2021/05/02 05:08:18;;;;;;;;;;;;;;;22.27;46.85;100142.19;5076183;28;744;-60
2021/05/02 05:10:44;;;;;;;;;;;;;;;21.93;47.69;100131.97;5075854;28;1056;-62
2021/05/02 05:13:09;;;;;;;;;;;;;;;21.83;47.78;100138.66;5076209;28;803;-57
2021/05/02 05:15:34;;;;;;;;;;;;;;;21.62;47.88;100138.47;5075974;28;874;-64
2021/05/02 05:18:00;;;;;;;;;;;;;;;21.75;48.37;100148.56;5075827;28;963;-54
2021/05/02 05:20:25;;;;;;;;;;;;;;;22.12;47.52;100145.47;5076132;28;811;-64
2021/05/02 05:22:51;;;;;;;;;;;;;;;22.39;46.69;100147.94;5079193;28;1918;-63
2021/05/02 05:25:16;;;;;;;;;;;;;;;21.94;47.76;100153.00;5079916;28;787;-63
2021/05/02 05:27:42;;;;;;;;;;;;;;;21.88;47.95;100146.78;5078917;28;744;-63
2021/05/02 05:30:09;;;;;;;;;;;;;;;21.58;48.05;100151.31;5080238;28;728;-63
2021/05/02 05:32:35;;;;;;;;;;;;;;;21.72;48.54;100149.22;5079912;28;966;-63
2021/05/02 05:35:00;;;;;;;;;;;;;;;22.01;47.72;100153.31;5079966;28;862;-63
2021/05/02 05:37:26;;;;;;;;;;;;;;;22.36;46.96;100137.50;5080072;28;775;-64
2021/05/02 05:39:52;;;;;;;;;;;;;;;22.28;46.91;100151.34;5079723;28;868;-63
2021/05/02 05:42:17;;;;;;;;;;;;;;;22.13;47.54;100150.72;5079767;28;791;-63
2021/05/02 05:44:43;;;;;;;;;;;;;;;22.04;47.43;100141.59;5079530;28;1989;-49
2021/05/02 05:47:09;;;;;;;;;;;;;;;21.85;47.06;100145.50;5079133;28;951;-50
2021/05/02 05:49:37;;;;;;;;;;;;;;;21.72;48.86;100143.69;5079783;28;553;-64
2021/05/02 05:52:02;;;;;;;;;;;;;;;22.09;47.52;100144.19;5078774;28;1121;-63
2021/05/02 05:54:27;;;;;;;;;;;;;;;22.47;46.68;100137.16;5079308;28;772;-61
2021/05/02 05:56:53;;;;;;;;;;;;;;;22.33;46.90;100131.75;5060837;28;862;-63
2021/05/02 05:59:18;;;;;;;;;;;;;;;21.94;48.07;100131.66;5079359;28;775;-63
2021/05/02 06:01:44;;;;;;;;;;;;;;;21.75;48.31;100131.97;5079109;28;927;-63
2021/05/02 06:04:09;;;;;;;;;;;;;;;21.81;48.35;100133.44;5079398;28;1982;-51
2021/05/02 06:06:35;;;;;;;;;;;;;;;21.69;48.46;100131.31;5079021;28;858;-63
2021/05/02 06:09:01;;;;;;;;;;;;;;;21.91;47.96;100129.53;5079358;28;755;-49
2021/05/02 06:11:28;;;;;;;;;;;;;;;21.78;48.11;100128.53;5079249;28;1217;-63
2021/05/02 06:13:53;;;;;;;;;;;;;;;21.72;48.29;100117.97;5079105;28;736;-64
2021/05/02 06:16:19;;;;;;;;;;;;;;;21.75;48.49;100109.81;5078625;28;1017;-50
2021/05/02 06:18:44;;;;;;;;;;;;;;;21.70;48.52;100116.34;5079704;28;915;-62
2021/05/02 06:21:09;;;;;;;;;;;;;;;21.64;48.52;100122.34;5078966;28;856;-48
2021/05/02 06:23:35;;;;;;;;;;;;;;;21.64;48.51;100114.06;5078893;28;1906;-63
2021/05/02 06:26:00;;;;;;;;;;;;;;;21.99;47.85;100116.81;5079139;28;909;-64
2021/05/02 06:28:26;;;;;;;;;;;;;;;22.31;46.77;100103.59;5077557;28;780;-50
2021/05/02 06:30:51;;;;;;;;;;;;;;;22.11;47.37;100096.81;5079167;28;802;-64
2021/05/02 06:33:17;;;;;;;;;;;;;;;22.11;47.59;100103.16;5078331;28;998;-48
2021/05/02 06:35:42;;;;;;;;;;;;;;;21.97;47.33;100105.28;5078835;28;766;-64
2021/05/02 06:38:07;;;;;;;;;;;;;;;21.68;47.94;100112.28;5078626;28;791;-62
2021/05/02 06:40:33;;;;;;;;;;;;;;;22.04;47.86;100095.31;5078782;28;744;-48
2021/05/02 06:42:59;;;;;;;;;;;;;;;22.39;46.87;100080.66;5078661;28;1913;-48
2021/05/02 06:45:25;;;;;;;;;;;;;;;22.13;47.61;100089.81;5078664;28;743;-47
2021/05/02 06:47:50;;;;;;;;;;;;;;;22.23;47.07;100083.06;5078236;28;1006;-64
2021/05/02 06:50:17;;;;;;;;;;;;;;;22.07;47.08;100080.03;5078661;28;854;-48
2021/05/02 06:52:42;;;;;;;;;;;;;;;21.84;46.68;100077.44;5078542;28;787;-64
2021/05/02 06:55:08;;;;;;;;;;;;;;;21.93;48.29;100076.63;5078479;28;819;-53
2021/05/02 06:57:33;;;;;;;;;;;;;;;22.22;47.24;100076.72;5078058;28;806;-65
2021/05/02 06:59:59;;;;;;;;;;;;;;;22.21;47.08;100069.56;5078383;28;786;-49
2021/05/02 07:02:24;;;;;;;;;;;;;;;22.14;47.74;100069.25;5077883;28;998;-48
2021/05/02 07:04:50;;;;;;;;;;;;;;;22.26;46.96;100065.81;5078513;28;1969;-47
2021/05/02 07:07:15;;;;;;;;;;;;;;;21.97;45.19;100063.75;5078289;28;771;-47
2021/05/02 07:09:41;;;;;;;;;;;;;;;21.97;48.40;100058.22;5078209;28;787;-68
2021/05/02 07:12:06;;;;;;;;;;;;;;;22.21;47.47;100057.69;5077759;28;1048;-68
2021/05/02 07:14:32;;;;;;;;;;;;;;;22.31;47.17;100046.25;5078057;28;768;-67
2021/05/02 07:16:57;;;;;;;;;;;;;;;22.41;47.09;100055.38;5077802;28;1018;-47
2021/05/02 07:19:23;;;;;;;;;;;;;;;22.39;46.71;100047.41;5078115;28;799;-50
2021/05/02 07:21:56;;;;;;;;;;;;;;;21.92;47.44;100050.06;5076962;28;1943;-47
2021/05/02 07:24:21;;;;;;;;;;;;;;;21.90;46.85;100035.78;5078062;28;1909;-66
2021/05/02 07:26:47;;;;;;;;;;;;;;;21.96;48.34;100039.97;5077646;28;795;-46
2021/05/02 07:29:12;;;;;;;;;;;;;;;22.36;47.12;100039.75;5077808;28;847;-49
2021/05/02 07:31:38;;;;;;;;;;;;;;;22.31;47.13;100031.59;5077272;28;1081;-50
2021/05/02 07:34:03;;;;;;;;;;;;;;;22.25;47.35;100032.94;5077605;28;791;-50
2021/05/02 07:36:29;;;;;;;;;;;;;;;22.20;47.48;100034.72;5077616;28;812;-49
2021/05/02 07:38:54;;;;;;;;;;;;;;;21.92;47.47;100028.75;5077376;28;799;-64
2021/05/02 07:41:19;;;;;;;;;;;;;;;21.69;48.94;100028.13;5077708;28;747;-64
2021/05/02 07:43:45;;;;;;;;;;;;;;;22.11;47.95;100020.09;5075786;28;1909;-48
2021/05/02 07:46:10;;;;;;;;;;;;;;;22.48;47.03;100006.66;5077608;28;764;-63
2021/05/02 07:48:36;;;;;;;;;;;;;;;22.15;47.64;100007.19;5077218;28;1002;-64
2021/05/02 07:51:02;;;;;;;;;;;;;;;22.30;47.33;100008.63;5077333;28;811;-51
2021/05/02 07:53:27;;;;;;;;;;;;;;;21.93;47.74;99996.34;5077193;28;799;-67
2021/05/02 07:55:52;;;;;;;;;;;;;;;21.73;48.11;99998.66;5077058;28;739;-50
2021/05/02 07:58:18;;;;;;;;;;;;;;;21.93;48.42;99994.38;5077105;28;791;-47
2021/05/02 08:00:43;;;;;;;;;;;;;;;22.28;47.61;99994.28;5076982;28;727;-67
2021/05/02 08:03:09;;;;;;;;;;;;;;;22.28;47.58;99985.19;5077406;28;1914;-47
2021/05/02 08:05:34;;;;;;;;;;;;;;;22.17;47.94;99981.94;5076988;28;863;-51
2021/05/02 08:08:00;;;;;;;;;;;;;;;22.10;47.91;99965.84;5076805;28;768;-66
2021/05/02 08:10:25;;;;;;;;;;;;;;;21.80;46.67;99959.44;5076846;28;1199;-67
2021/05/02 08:12:54;;;;;;;;;;;;;;;21.76;49.11;99953.72;5076915;28;787;-66
2021/05/02 08:15:19;;;;;;;;;;;;;;;22.11;48.11;99955.59;5076687;28;879;-65
2021/05/02 08:17:45;;;;;;;;;;;;;;;22.43;47.31;99947.81;5076549;28;1021;-48
2021/05/02 08:20:11;;;;;;;;;;;;;;;22.27;47.64;99947.53;5077113;28;875;-49
2021/05/02 08:22:36;;;;;;;;;;;;;;;22.24;47.74;99934.38;5076722;28;767;-66
2021/05/02 08:25:03;;;;;;;;;;;;;;;22.11;47.59;99930.69;5076706;28;1914;-66
2021/05/02 08:27:28;;;;;;;;;;;;;;;21.46;48.53;99923.16;5076720;28;791;-48
2021/05/02 08:29:54;;;;;;;;;;;;;;;21.81;49.01;99922.28;5076874;28;773;-66
2021/05/02 08:32:19;;;;;;;;;;;;;;;22.10;48.21;99924.31;5076041;28;1001;-47
2021/05/02 08:34:44;;;;;;;;;;;;;;;22.47;47.15;99924.69;5076816;28;796;-60
2021/05/02 08:37:10;;;;;;;;;;;;;;;22.28;47.76;99938.91;5076485;28;530;-66
2021/05/02 08:39:35;;;;;;;;;;;;;;;22.45;47.20;99940.81;5058707;28;668;-67
2021/05/02 08:42:01;;;;;;;;;;;;;;;22.31;47.28;99923.59;5076812;28;767;-66
2021/05/02 08:44:28;;;;;;;;;;;;;;;21.62;48.05;99931.78;5076208;28;1969;-67
2021/05/02 08:46:53;;;;;;;;;;;;;;;21.68;49.41;99935.19;5075611;28;1912;-66
2021/05/02 08:49:19;;;;;;;;;;;;;;;22.00;48.73;99931.03;5076769;28;806;-48
2021/05/02 08:51:45;;;;;;;;;;;;;;;22.30;47.72;99921.94;5076362;28;791;-65
2021/05/02 08:54:10;;;;;;;;;;;;;;;22.32;47.72;99927.97;5074998;28;1177;-53
2021/05/02 08:56:36;;;;;;;;;;;;;;;22.16;48.24;99928.53;5076434;28;747;-66
2021/05/02 08:59:01;;;;;;;;;;;;;;;22.13;48.04;99931.16;5076267;28;755;-65
2021/05/02 09:01:27;;;;;;;;;;;;;;;21.71;47.71;99920.69;5076166;28;1006;-66
2021/05/02 09:03:53;;;;;;;;;;;;;;;21.70;49.06;99925.44;5076190;28;1898;-66
2021/05/02 09:06:18;;;;;;;;;;;;;;;22.12;48.77;99930.34;5075970;28;855;-53
2021/05/02 09:08:44;;;;;;;;;;;;;;;22.40;47.80;99929.94;5076198;28;863;-48
2021/05/02 09:11:09;;;;;;;;;;;;;;;22.66;47.10;99929.75;5076236;28;1032;-48
2021/05/02 09:13:38;;;;;;;;;;;;;;;22.34;48.02;99922.94;5075984;28;819;-65
2021/05/02 09:16:04;;;;;;;;;;;;;;;22.36;48.08;99924.22;5076392;28;764;-47
2021/05/02 09:18:36;;;;;;;;;;;;;;;22.03;48.13;99924.03;5075811;28;954;-47
2021/05/02 09:21:02;;;;;;;;;;;;;;;21.58;47.91;99914.22;5076162;28;821;-65
2021/05/02 09:23:38;;;;;;;;;;;;;;;21.77;49.46;99927.69;5076037;28;1897;-65
2021/05/02 09:26:04;;;;;;;;;;;;;;;22.09;48.64;99933.78;5076402;28;808;-66
2021/05/02 09:28:46;;;;;;;;;;;;;;;22.26;48.07;99932.06;5075975;28;784;-49
2021/05/02 09:31:13;;;;;;;;;;;;;;;22.40;47.73;99932.69;5076636;28;748;-47
2021/05/02 09:33:38;;;;;;;;;;;;;;;22.38;47.62;99923.91;5073733;28;877;-54
2021/05/02 09:36:10;;;;;;;;;;;;;;;22.28;48.14;99918.72;5076107;28;819;-67
2021/05/02 09:38:36;;;;;;;;;;;;;;;21.86;49.08;99914.63;5075880;28;803;-67
2021/05/02 09:41:01;;;;;;;;;;;;;;;21.68;49.68;99899.22;5075790;28;798;-47
2021/05/02 09:43:36;;;;;;;;;;;;;;;21.52;48.93;99894.22;5075699;28;1910;-66
2021/05/02 09:46:09;;;;;;;;;;;;;;;21.33;50.85;99890.97;5075804;28;759;-65
2021/05/02 09:48:34;;;;;;;;;;;;;;;21.86;49.11;99897.22;5075689;28;938;-66
2021/05/02 09:51:12;;;;;;;;;;;;;;;22.29;47.93;99881.56;5076185;28;772;-48
2021/05/02 09:53:37;;;;;;;;;;;;;;;22.10;48.36;99885.56;5075923;28;812;-66
2021/05/02 09:56:12;;;;;;;;;;;;;;;22.29;48.21;99879.59;5075782;28;824;-48
2021/05/02 09:58:38;;;;;;;;;;;;;;;22.11;45.86;99881.66;5075606;28;827;-57
2021/05/02 10:01:04;;;;;;;;;;;;;;;21.84;47.95;99889.25;5075549;28;831;-66
2021/05/02 10:03:31;;;;;;;;;;;;;;;22.16;48.79;99880.63;5075689;28;1981;-48
2021/05/02 10:06:04;;;;;;;;;;;;;;;22.51;47.79;99880.47;5074674;28;990;-66
2021/05/02 10:08:30;;;;;;;;;;;;;;;22.47;47.77;99883.13;5076749;28;1334;-49
2021/05/02 10:10:57;;;;;;;;;;;;;;;22.45;47.87;99888.16;5079455;28;1179;-66
2021/05/02 10:13:22;;;;;;;;;;;;;;;22.10;46.42;99879.22;5078265;28;832;-66
2021/05/02 10:15:48;;;;;;;;;;;;;;;21.74;48.06;99872.19;5078908;28;799;-64
2021/05/02 10:18:13;;;;;;;;;;;;;;;21.73;49.92;99871.38;5078747;28;955;-65
2021/05/02 10:20:48;;;;;;;;;;;;;;;22.03;48.89;99883.31;5079148;28;867;-49
2021/05/02 10:23:14;;;;;;;;;;;;;;;22.41;48.06;99898.28;5079219;28;1910;-65
2021/05/02 10:25:42;;;;;;;;;;;;;;;22.12;48.55;99899.88;5079132;28;1504;-49
2021/05/02 10:28:08;;;;;;;;;;;;;;;22.17;48.47;99880.31;5078888;28;835;-66
2021/05/02 10:30:37;;;;;;;;;;;;;;;21.86;47.40;99881.41;5078852;28;748;-65
2021/05/02 10:33:03;;;;;;;;;;;;;;;21.74;47.11;99884.09;5078717;28;958;-65
2021/05/02 10:36:07;;;;;;;;;;;;;;;22.07;49.24;99889.00;5078734;28;814;-51
2021/05/02 10:38:48;;;;;;;;;;;;;;;22.42;48.09;99885.28;5036737;28;1346;-55
2021/05/02 10:41:20;;;;;;;;;;;;;;;22.11;48.87;99886.38;5036755;28;891;-66
2021/05/02 10:43:45;;;;;;;;;;;;;;;22.18;48.63;99887.47;5062248;28;1980;-66
2021/05/02 10:46:19;;;;;;;;;;;;;;;21.86;48.50;99884.19;5078663;28;743;-62
2021/05/02 10:48:45;;;;;;;;;;;;;;;21.57;47.95;99879.38;5077154;28;1434;-66
2021/05/02 10:51:23;;;;;;;;;;;;;;;21.96;49.71;99891.31;5078445;28;1566;-64
2021/05/02 10:54:08;;;;;;;;;;;;;;;22.29;48.58;99879.59;5077273;28;887;-50
2021/05/02 10:56:40;;;;;;;;;;;;;;;22.34;48.16;99875.84;5078416;28;767;-50
2021/05/02 10:59:05;;;;;;;;;;;;;;;22.13;48.75;99870.25;5060635;28;1177;-57
2021/05/02 11:01:31;;;;;;;;;;;;;;;22.00;48.79;99870.13;5077938;28;970;-52
2021/05/02 11:03:56;;;;;;;;;;;;;;;21.79;49.41;99872.81;5077969;28;1913;-48
2021/05/02 11:06:37;;;;;;;;;;;;;;;21.72;49.99;99867.00;5078338;28;775;-49
2021/05/02 11:09:03;;;;;;;;;;;;;;;21.79;49.71;99867.28;5078213;28;791;-66
2021/05/02 11:11:28;;;;;;;;;;;;;;;21.57;50.23;99862.00;5077784;28;1092;-48
2021/05/02 11:14:06;;;;;;;;;;;;;;;21.74;49.75;99869.41;5078058;28;811;-52
2021/05/02 11:16:32;;;;;;;;;;;;;;;21.72;49.90;99869.75;5077639;28;1005;-60
2021/05/02 11:18:57;;;;;;;;;;;;;;;21.66;50.03;99868.31;5076862;28;795;-66
2021/05/02 11:21:24;;;;;;;;;;;;;;;21.79;49.78;99874.78;5077819;28;787;-48
2021/05/02 11:23:57;;;;;;;;;;;;;;;21.76;49.47;99864.38;5077899;28;1968;-50
2021/05/02 11:26:41;;;;;;;;;;;;;;;21.64;49.90;99865.06;5077678;28;779;-49
2021/05/02 11:29:16;;;;;;;;;;;;;;;21.68;49.86;99863.25;5077818;28;843;-60
2021/05/02 11:31:42;;;;;;;;;;;;;;;21.51;50.29;99864.91;5077143;28;1025;-66
2021/05/02 11:34:07;;;;;;;;;;;;;;;21.63;50.17;99866.19;5077927;28;747;-66
2021/05/02 11:36:36;;;;;;;;;;;;;;;21.66;49.70;99855.28;5076854;28;810;-66
2021/05/02 11:39:02;;;;;;;;;;;;;;;21.53;50.15;99865.41;5077381;28;823;-49
2021/05/02 11:41:27;;;;;;;;;;;;;;;21.38;50.66;99865.91;5076566;28;862;-63
2021/05/02 11:43:53;;;;;;;;;;;;;;;21.39;50.58;99856.47;5077404;28;1979;-48
2021/05/02 11:46:28;;;;;;;;;;;;;;;21.62;50.17;99861.81;5077029;28;966;-56
2021/05/02 11:48:53;;;;;;;;;;;;;;;21.64;49.74;99852.06;5077778;28;863;-66
2021/05/02 11:51:20;;;;;;;;;;;;;;;21.70;49.58;99858.22;5077418;28;835;-49
2021/05/02 11:53:47;;;;;;;;;;;;;;;21.78;49.46;99851.81;5077166;28;740;-64
2021/05/02 11:56:16;;;;;;;;;;;;;;;21.72;49.70;99844.06;5077354;28;839;-50
2021/05/02 11:58:41;;;;;;;;;;;;;;;21.75;49.65;99852.47;5059180;28;752;-50
2021/05/02 12:01:17;;;;;;;;;;;;;;;21.60;49.94;99847.50;5076901;28;732;-50
2021/05/02 12:03:44;;;;;;;;;;;;;;;21.63;49.95;99855.13;5077084;28;1984;-50
2021/05/02 12:06:12;;;;;;;;;;;;;;;21.79;49.52;99847.91;5077013;28;843;-62
2021/05/02 12:08:37;;;;;;;;;;;;;;;21.88;49.31;99851.47;5075745;28;1156;-50
2021/05/02 12:11:04;;;;;;;;;;;;;;;21.70;49.66;99844.38;5076890;28;1036;-49
2021/05/02 12:13:31;;;;;;;;;;;;;;;21.74;49.66;99839.81;5076989;28;732;-53
2021/05/02 12:16:06;;;;;;;;;;;;;;;21.80;49.49;99849.53;5059286;28;852;-59
2021/05/02 12:18:41;;;;;;;;;;;;;;;21.73;49.66;99842.88;5075981;28;991;-65
2021/05/02 12:21:10;;;;;;;;;;;;;;;21.84;49.36;99822.84;5076562;28;759;-49
2021/05/02 12:23:35;;;;;;;;;;;;;;;21.83;49.50;99818.44;5077056;28;1989;-53
2021/05/02 12:26:07;;;;;;;;;;;;;;;22.00;48.90;99836.09;5076627;28;874;-65
2021/05/02 12:28:33;;;;;;;;;;;;;;;21.91;49.13;99836.16;5076706;28;839;-49
2021/05/02 12:30:58;;;;;;;;;;;;;;;21.77;49.44;99830.84;5076665;28;716;-65
2021/05/02 12:33:24;;;;;;;;;;;;;;;21.78;49.47;99837.97;5076267;28;1026;-48
2021/05/02 12:35:49;;;;;;;;;;;;;;;21.81;49.47;99834.56;5076397;28;807;-49
2021/05/02 12:38:27;;;;;;;;;;;;;;;21.82;49.37;99825.09;5076608;28;830;-47
2021/05/02 12:40:52;;;;;;;;;;;;;;;21.91;49.13;99821.50;5076207;28;484;-64
2021/05/02 12:43:21;;;;;;;;;;;;;;;21.91;49.15;99827.84;5076799;28;1913;-65
2021/05/02 12:45:47;;;;;;;;;;;;;;;21.96;49.12;99829.63;5076385;28;815;-49
2021/05/02 12:48:22;;;;;;;;;;;;;;;21.98;48.96;99827.31;5075796;28;1108;-65
2021/05/02 12:50:47;;;;;;;;;;;;;;;22.10;48.76;99827.41;5076495;28;772;-57
2021/05/02 12:53:12;;;;;;;;;;;;;;;22.11;48.68;99826.28;5076340;28;767;-66
2021/05/02 12:55:38;;;;;;;;;;;;;;;22.27;48.38;99828.47;5074945;28;791;-55